Terminal Aerodrome Forecast
Issued by NWS

Home | Current Version | Previous Version | Text Only | Print | Product List | Glossary On
Versions: 1 2 3 4 5 6 7 8 9 10 11 12 13 14 15 16 17 18 19 20 21 22 23 24 25
000
FTUS43 KABR 290900 AAC
TAFMBG
TAF AMD
KMBG 290916Z 2909/3006 30015G25KT P6SM BKN060
     FM291000 30020G30KT 5SM RA OVC025
     FM291300 32030G40KT P6SM SKC
     FM292100 32014KT P6SM SKC
     FM300100 VRB05KT P6SM SKC=

USA.gov is the U.S. government's official web portal to all federal, state and local government web resources and services.